createdAt,value
2015-07-17T00:00:17.679Z,21.5
2015-07-17T00:00:36.197Z,21.5
2015-07-17T00:00:54.666Z,21.5
2015-07-17T00:01:13.088Z,21.6
2015-07-17T00:01:31.589Z,21.6
2015-07-17T00:01:50.026Z,21.5
2015-07-17T00:02:08.573Z,21.5
2015-07-17T00:02:27.075Z,21.5
2015-07-17T00:02:45.450Z,21.5
2015-07-17T00:03:03.903Z,21.5
2015-07-17T00:03:22.357Z,21.6
2015-07-17T00:03:40.827Z,21.5
2015-07-17T00:03:59.218Z,21.5
2015-07-17T00:04:17.859Z,21.5
2015-07-17T00:04:36.251Z,21.5
2015-07-17T00:04:54.845Z,21.6
2015-07-17T00:05:13.361Z,21.6
2015-07-17T00:05:32.019Z,21.5
2015-07-17T00:05:50.534Z,21.5
2015-07-17T00:06:08.988Z,21.5
2015-07-17T00:06:27.581Z,21.6
2015-07-17T00:06:46.099Z,21.7
2015-07-17T00:07:04.661Z,21.6
2015-07-17T00:07:23.052Z,21.5
2015-07-17T00:07:41.476Z,21.5
2015-07-17T00:07:59.992Z,21.5
2015-07-17T00:08:18.804Z,21.6
2015-07-17T00:08:37.197Z,21.6
2015-07-17T00:08:55.556Z,21.7
2015-07-17T00:09:13.962Z,21.7
2015-07-17T00:09:32.353Z,21.7
2015-07-17T00:09:50.792Z,21.7
2015-07-17T00:10:09.214Z,21.6
2015-07-17T00:10:27.777Z,21.5
2015-07-17T00:10:46.263Z,21.5
2015-07-17T00:11:04.779Z,21.5
2015-07-17T00:11:23.154Z,21.5
2015-07-17T00:11:41.531Z,21.5
2015-07-17T00:11:59.953Z,21.5
2015-07-17T00:12:18.406Z,21.5
2015-07-17T00:12:37.078Z,21.5
2015-07-17T00:12:55.502Z,21.5
2015-07-17T00:13:13.877Z,21.4
2015-07-17T00:13:32.439Z,21.5
2015-07-17T00:13:50.816Z,21.5
2015-07-17T00:14:09.472Z,21.5
2015-07-17T00:14:28.050Z,21.6
2015-07-17T00:14:46.490Z,21.6
2015-07-17T00:15:04.927Z,21.6
2015-07-17T00:15:23.396Z,21.6
2015-07-17T00:15:41.865Z,21.5
2015-07-17T00:16:00.428Z,21.4
2015-07-17T00:16:18.866Z,21.4
2015-07-17T00:16:37.413Z,21.4
2015-07-17T00:16:55.868Z,21.4
2015-07-17T00:17:14.368Z,21.4
2015-07-17T00:17:33.102Z,21.4
2015-07-17T00:17:51.495Z,21.4
2015-07-17T00:18:09.901Z,21.4
2015-07-17T00:18:28.370Z,21.4
2015-07-17T00:18:46.979Z,21.4
2015-07-17T00:19:05.467Z,21.5
2015-07-17T00:19:24.154Z,21.5
2015-07-17T00:19:42.795Z,21.6
2015-07-17T00:20:01.281Z,21.6
2015-07-17T00:20:19.625Z,21.7
2015-07-17T00:20:38.062Z,21.5
2015-07-17T00:20:56.548Z,21.5
2015-07-17T00:21:15.079Z,21.5
2015-07-17T00:21:33.595Z,21.5
2015-07-17T00:21:52.032Z,21.4
2015-07-17T00:22:10.629Z,21.4
2015-07-17T00:22:29.066Z,21.3
2015-07-17T00:22:47.645Z,21.4
2015-07-17T00:23:06.083Z,21.4
2015-07-17T00:23:24.599Z,21.5
2015-07-17T00:23:43.177Z,21.5
2015-07-17T00:24:01.554Z,21.5
2015-07-17T00:24:19.976Z,21.5
2015-07-17T00:24:38.366Z,21.5
2015-07-17T00:24:56.804Z,21.5
2015-07-17T00:25:15.197Z,21.5
2015-07-17T00:25:33.619Z,21.5
2015-07-17T00:25:52.072Z,21.5
2015-07-17T00:26:10.449Z,21.5
2015-07-17T00:26:28.824Z,21.5
2015-07-17T00:26:47.278Z,21.5
2015-07-17T00:27:05.670Z,21.5
2015-07-17T00:27:24.326Z,21.5
2015-07-17T00:27:42.733Z,21.5
2015-07-17T00:28:01.092Z,21.5
2015-07-17T00:28:19.656Z,21.5
2015-07-17T00:28:38.046Z,21.5
2015-07-17T00:28:56.484Z,21.4
2015-07-17T00:29:15.111Z,21.5
2015-07-17T00:29:33.626Z,21.5
2015-07-17T00:29:52.095Z,21.5
2015-07-17T00:30:10.629Z,21.5
2015-07-17T00:30:29.161Z,21.5
2015-07-17T00:30:47.551Z,21.4
2015-07-17T00:31:06.006Z,21.4
2015-07-17T00:31:24.381Z,21.4
2015-07-17T00:31:42.944Z,21.4
2015-07-17T00:32:01.413Z,21.4
2015-07-17T00:32:19.805Z,21.4
2015-07-17T00:32:37.836Z,21.3
2015-07-17T00:32:56.274Z,21.4
2015-07-17T00:33:14.697Z,21.4
2015-07-17T00:33:33.275Z,21.4
2015-07-17T00:33:51.212Z,21.3
2015-07-17T00:34:09.683Z,21.3
2015-07-17T00:34:28.043Z,21.3
2015-07-17T00:34:46.558Z,21.3
2015-07-17T00:35:05.183Z,21.3
2015-07-17T00:35:23.670Z,21.3
2015-07-17T00:35:42.091Z,21.2
2015-07-17T00:36:00.529Z,21.3
2015-07-17T00:36:19.109Z,21.3
2015-07-17T00:36:37.531Z,21.4
2015-07-17T00:36:55.890Z,21.3
2015-07-17T00:37:14.439Z,21.3
2015-07-17T00:37:32.814Z,21.4
2015-07-17T00:37:51.408Z,21.4
2015-07-17T00:38:09.892Z,21.4
2015-07-17T00:38:28.379Z,21.4
2015-07-17T00:38:46.894Z,21.4
2015-07-17T00:39:05.410Z,21.5
2015-07-17T00:39:23.881Z,21.5
2015-07-17T00:39:42.240Z,21.4
2015-07-17T00:40:00.818Z,21.4
2015-07-17T00:40:19.180Z,21.3
2015-07-17T00:40:37.570Z,21.4
2015-07-17T00:40:56.070Z,21.3
2015-07-17T00:41:14.445Z,21.4
2015-07-17T00:41:32.697Z,21.4
2015-07-17T00:41:51.291Z,21.4
2015-07-17T00:42:09.869Z,21.5
2015-07-17T00:42:28.277Z,21.5
2015-07-17T00:42:46.699Z,21.4
2015-07-17T00:43:05.512Z,21.4
2015-07-17T00:43:23.888Z,21.5
2015-07-17T00:43:42.341Z,21.5
2015-07-17T00:44:00.919Z,21.4
2015-07-17T00:44:19.388Z,21.3
2015-07-17T00:44:37.827Z,21.4
2015-07-17T00:44:56.405Z,21.4
2015-07-17T00:45:14.874Z,21.4
2015-07-17T00:45:33.251Z,21.4
2015-07-17T00:45:51.673Z,21.4
2015-07-17T00:46:10.079Z,21.4
2015-07-17T00:46:28.504Z,21.4
2015-07-17T00:46:47.098Z,21.4
2015-07-17T00:47:05.723Z,21.3
2015-07-17T00:47:24.254Z,21.3
2015-07-17T00:47:42.881Z,21.3
2015-07-17T00:48:01.444Z,21.3
2015-07-17T00:48:19.850Z,21.4
2015-07-17T00:48:38.554Z,21.4
2015-07-17T00:48:57.163Z,21.4
2015-07-17T00:49:15.632Z,21.3
2015-07-17T00:49:34.010Z,21.4
2015-07-17T00:49:52.557Z,21.4
2015-07-17T00:50:10.948Z,21.4
2015-07-17T00:50:29.338Z,21.5
2015-07-17T00:50:47.762Z,21.5
2015-07-17T00:51:06.403Z,21.5
2015-07-17T00:51:24.856Z,21.4
2015-07-17T00:51:43.341Z,21.3
2015-07-17T00:52:01.732Z,21.3
2015-07-17T00:52:20.372Z,21.2
2015-07-17T00:52:38.766Z,21.3
2015-07-17T00:52:57.360Z,21.3
2015-07-17T00:53:15.829Z,21.3
2015-07-17T00:53:34.360Z,21.3
2015-07-17T00:53:52.720Z,21.4
2015-07-17T00:54:11.251Z,21.4
2015-07-17T00:54:29.658Z,21.4
2015-07-17T00:54:48.114Z,21.4
2015-07-17T00:55:06.504Z,21.4
2015-07-17T00:55:24.895Z,21.5
2015-07-17T00:55:43.255Z,21.4
2015-07-17T00:56:01.630Z,21.4
2015-07-17T00:56:19.990Z,21.4
2015-07-17T00:56:38.380Z,21.5
2015-07-17T00:56:56.742Z,21.4
2015-07-17T00:57:15.132Z,21.4
2015-07-17T00:57:33.507Z,21.4
2015-07-17T00:57:51.869Z,21.4
2015-07-17T00:58:10.244Z,21.4
2015-07-17T00:58:28.619Z,21.3
2015-07-17T00:58:46.996Z,21.2
2015-07-17T00:59:05.371Z,21.2
2015-07-17T00:59:23.746Z,21.2
2015-07-17T00:59:42.136Z,21.3
2015-07-17T01:00:00.529Z,21.2
2015-07-17T01:00:18.904Z,21.2
2015-07-17T01:00:37.279Z,21.2
2015-07-17T01:00:55.673Z,21.2
2015-07-17T01:01:14.048Z,21.2
2015-07-17T01:01:32.423Z,21.3
2015-07-17T01:01:50.800Z,21.3
2015-07-17T01:02:09.159Z,21.3
2015-07-17T01:02:27.534Z,21.3
2015-07-17T01:02:45.909Z,21.3
2015-07-17T01:03:04.285Z,21.3
2015-07-17T01:03:22.660Z,21.4
2015-07-17T01:03:41.035Z,21.3
2015-07-17T01:03:59.412Z,21.4
2015-07-17T01:04:17.787Z,21.4
2015-07-17T01:04:36.178Z,21.4
2015-07-17T01:04:54.555Z,21.4
2015-07-17T01:05:12.914Z,21.4
2015-07-17T01:05:31.305Z,21.3
2015-07-17T01:05:49.682Z,21.3
2015-07-17T01:06:08.057Z,21.2
2015-07-17T01:06:26.416Z,21.2
2015-07-17T01:06:44.807Z,21.2
2015-07-17T01:07:03.184Z,21.2
2015-07-17T01:07:21.606Z,21.2
2015-07-17T01:07:39.981Z,21.1
2015-07-17T01:07:58.373Z,21.2
2015-07-17T01:08:16.764Z,21.1
2015-07-17T01:08:35.154Z,21.1
2015-07-17T01:08:53.531Z,21.1
2015-07-17T01:09:11.906Z,21.1
2015-07-17T01:09:30.281Z,21.2
2015-07-17T01:09:48.656Z,21.3
2015-07-17T01:10:07.049Z,21.3
2015-07-17T01:10:25.424Z,21.3
2015-07-17T01:10:43.143Z,21.3
2015-07-17T01:11:01.534Z,21.4
2015-07-17T01:11:19.909Z,21.3
2015-07-17T01:11:38.284Z,21.2
2015-07-17T01:11:56.677Z,21.3
2015-07-17T01:12:15.036Z,21.3
2015-07-17T01:12:33.427Z,21.2
2015-07-17T01:12:51.818Z,21.1
2015-07-17T01:13:10.179Z,21.1
2015-07-17T01:13:28.554Z,21
2015-07-17T01:13:46.913Z,21.1
2015-07-17T01:14:05.291Z,21.1
2015-07-17T01:14:23.666Z,21.2
2015-07-17T01:14:42.041Z,21.2
2015-07-17T01:15:00.433Z,21.3
2015-07-17T01:15:18.808Z,21.2
2015-07-17T01:15:37.199Z,21.2
2015-07-17T01:15:55.558Z,21.1
2015-07-17T01:16:13.919Z,21.1
2015-07-17T01:16:32.294Z,21.1
2015-07-17T01:16:50.685Z,21.1
2015-07-17T01:17:09.047Z,21.1
2015-07-17T01:17:27.438Z,21
2015-07-17T01:17:45.829Z,21
2015-07-17T01:18:04.221Z,21
2015-07-17T01:18:22.596Z,21.1
2015-07-17T01:18:40.971Z,21
2015-07-17T01:18:59.346Z,21
2015-07-17T01:19:17.723Z,21.1
2015-07-17T01:19:36.114Z,21
2015-07-17T01:19:54.333Z,21
2015-07-17T01:20:12.709Z,21
2015-07-17T01:20:31.084Z,21
2015-07-17T01:20:49.474Z,21
2015-07-17T01:21:07.867Z,21
2015-07-17T01:21:26.242Z,21.1
2015-07-17T01:21:44.617Z,21.2
2015-07-17T01:22:02.336Z,21.1
2015-07-17T01:22:20.713Z,21
2015-07-17T01:22:39.088Z,21.1
2015-07-17T01:22:57.463Z,21.1
2015-07-17T01:23:15.841Z,21.1
2015-07-17T01:23:34.216Z,21.1
2015-07-17T01:23:52.591Z,21.2
2015-07-17T01:24:10.968Z,21.2
2015-07-17T01:24:29.358Z,21.1
2015-07-17T01:24:47.749Z,21.1
2015-07-17T01:25:06.124Z,21.1
2015-07-17T01:25:24.516Z,21.2
2015-07-17T01:25:42.906Z,21.2
2015-07-17T01:26:01.281Z,21.1
2015-07-17T01:26:19.674Z,21
2015-07-17T01:26:38.033Z,20.9
2015-07-17T01:26:56.408Z,20.9
2015-07-17T01:27:14.801Z,21
2015-07-17T01:27:33.176Z,21
2015-07-17T01:27:51.566Z,21
2015-07-17T01:28:09.285Z,21.1
2015-07-17T01:28:27.662Z,21.1
2015-07-17T01:28:46.084Z,21
2015-07-17T01:29:04.553Z,21.1
2015-07-17T01:29:23.242Z,21.1
2015-07-17T01:29:41.711Z,21.1
2015-07-17T01:30:00.149Z,21.1
2015-07-17T01:30:18.932Z,21.1
2015-07-17T01:30:37.385Z,21.1
2015-07-17T01:30:55.932Z,21.1
2015-07-17T01:31:14.385Z,21.1
2015-07-17T01:31:32.793Z,21.1
2015-07-17T01:31:51.199Z,21
2015-07-17T01:32:09.762Z,21
2015-07-17T01:32:28.138Z,20.9
2015-07-17T01:32:46.779Z,20.9
2015-07-17T01:33:05.232Z,21
2015-07-17T01:33:23.594Z,21
2015-07-17T01:33:42.172Z,21
2015-07-17T01:34:00.547Z,21.1
2015-07-17T01:34:18.250Z,21.2
2015-07-17T01:34:36.814Z,21.2
2015-07-17T01:34:55.204Z,21.2
2015-07-17T01:35:13.689Z,21.2
2015-07-17T01:35:32.097Z,21.1
2015-07-17T01:35:50.503Z,21.2
2015-07-17T01:36:08.941Z,21.1
2015-07-17T01:36:27.412Z,21
2015-07-17T01:36:45.912Z,21
2015-07-17T01:37:04.349Z,21.1
2015-07-17T01:37:22.818Z,21.1
2015-07-17T01:37:41.414Z,21.1
2015-07-17T01:37:59.851Z,21.1
2015-07-17T01:38:18.351Z,21.2
2015-07-17T01:38:36.869Z,21.1
2015-07-17T01:38:55.556Z,21
2015-07-17T01:39:14.025Z,21
2015-07-17T01:39:32.418Z,20.9
2015-07-17T01:39:50.824Z,20.9
2015-07-17T01:40:09.449Z,21
2015-07-17T01:40:28.011Z,21
2015-07-17T01:40:46.467Z,21.1
2015-07-17T01:41:04.936Z,21.1
2015-07-17T01:41:23.421Z,21.1
2015-07-17T01:41:41.907Z,21.1
2015-07-17T01:42:00.344Z,21.1
2015-07-17T01:42:18.766Z,21
2015-07-17T01:42:37.252Z,21
2015-07-17T01:42:55.627Z,21
2015-07-17T01:43:14.080Z,21
2015-07-17T01:43:32.611Z,21
2015-07-17T01:43:51.019Z,21
2015-07-17T01:44:09.551Z,21
2015-07-17T01:44:27.910Z,21
2015-07-17T01:44:46.335Z,21
2015-07-17T01:45:04.741Z,21
2015-07-17T01:45:23.147Z,21.1
2015-07-17T01:45:41.587Z,21
2015-07-17T01:46:00.040Z,21.1
2015-07-17T01:46:18.540Z,21.1
2015-07-17T01:46:37.072Z,21.1
2015-07-17T01:46:55.557Z,21
2015-07-17T01:47:14.119Z,20.8
2015-07-17T01:47:32.697Z,20.8
2015-07-17T01:47:51.168Z,20.8
2015-07-17T01:48:09.668Z,20.9
2015-07-17T01:48:28.371Z,20.8
2015-07-17T01:48:46.826Z,20.9
2015-07-17T01:49:05.342Z,20.9
2015-07-17T01:49:23.936Z,20.9
2015-07-17T01:49:42.469Z,20.9
2015-07-17T01:50:01.141Z,20.9
2015-07-17T01:50:19.766Z,20.9
2015-07-17T01:50:38.203Z,20.9
2015-07-17T01:50:56.565Z,21
2015-07-17T01:51:15.486Z,21
2015-07-17T01:51:34.330Z,21
2015-07-17T01:51:52.770Z,20.9
2015-07-17T01:52:11.426Z,20.8
2015-07-17T01:52:29.942Z,20.8
2015-07-17T01:52:48.429Z,20.7
2015-07-17T01:53:06.960Z,20.6
2015-07-17T01:53:25.320Z,20.6
2015-07-17T01:53:43.835Z,20.6
2015-07-17T01:54:02.414Z,20.7
2015-07-17T01:54:20.836Z,20.7
2015-07-17T01:54:39.571Z,20.7
2015-07-17T01:54:58.276Z,20.8
2015-07-17T01:55:16.838Z,20.8
2015-07-17T01:55:35.510Z,20.8
2015-07-17T01:55:54.403Z,20.7
2015-07-17T01:56:12.934Z,20.8
2015-07-17T01:56:31.371Z,20.8
2015-07-17T01:56:49.981Z,20.8
2015-07-17T01:57:08.530Z,20.9
2015-07-17T01:57:27.389Z,20.9
2015-07-17T01:57:45.858Z,20.9
2015-07-17T01:58:04.282Z,20.9
2015-07-17T01:58:22.750Z,21
2015-07-17T01:58:40.610Z,21
2015-07-17T01:58:59.018Z,21
2015-07-17T01:59:17.549Z,21
2015-07-17T01:59:35.940Z,20.9
2015-07-17T01:59:54.424Z,20.9
2015-07-17T02:00:12.817Z,20.9
2015-07-17T02:00:31.504Z,20.9
2015-07-17T02:00:49.958Z,21
2015-07-17T02:01:08.475Z,20.9
2015-07-17T02:01:26.850Z,20.8
2015-07-17T02:01:45.522Z,20.7
2015-07-17T02:02:03.899Z,20.8
2015-07-17T02:02:22.321Z,20.7
2015-07-17T02:02:40.712Z,20.7
2015-07-17T02:02:59.119Z,20.6
2015-07-17T02:03:17.556Z,20.7
2015-07-17T02:03:35.947Z,20.8
2015-07-17T02:03:54.369Z,20.8
2015-07-17T02:04:12.747Z,20.9
2015-07-17T02:04:31.169Z,20.9
2015-07-17T02:04:49.544Z,20.8
2015-07-17T02:05:07.936Z,20.9
2015-07-17T02:05:26.327Z,20.8
2015-07-17T02:05:44.702Z,20.8
2015-07-17T02:06:03.156Z,20.8
2015-07-17T02:06:21.515Z,20.8
2015-07-17T02:06:39.875Z,20.7
2015-07-17T02:06:58.265Z,20.7
2015-07-17T02:07:16.659Z,20.8
2015-07-17T02:07:35.050Z,20.8
2015-07-17T02:07:52.909Z,20.9
2015-07-17T02:08:11.349Z,20.9
2015-07-17T02:08:29.755Z,20.9
2015-07-17T02:08:48.317Z,20.9
2015-07-17T02:09:06.865Z,20.8
2015-07-17T02:09:25.256Z,20.7
2015-07-17T02:09:43.850Z,20.7
2015-07-17T02:10:02.350Z,20.7
2015-07-17T02:10:20.805Z,20.7
2015-07-17T02:10:39.352Z,20.8
2015-07-17T02:10:57.914Z,20.7
2015-07-17T02:11:16.354Z,20.7
2015-07-17T02:11:34.854Z,20.7
2015-07-17T02:11:53.260Z,20.7
2015-07-17T02:12:11.887Z,20.7
2015-07-17T02:12:30.309Z,20.7
2015-07-17T02:12:48.668Z,20.7
2015-07-17T02:13:06.449Z,20.8
2015-07-17T02:13:24.811Z,20.8
2015-07-17T02:13:43.186Z,20.8
2015-07-17T02:14:01.686Z,20.8
2015-07-17T02:14:20.094Z,20.8
2015-07-17T02:14:38.469Z,20.8
2015-07-17T02:14:56.969Z,20.9
2015-07-17T02:15:15.363Z,20.9
2015-07-17T02:15:33.863Z,20.9
2015-07-17T02:15:52.269Z,20.9
2015-07-17T02:16:10.769Z,20.9
2015-07-17T02:16:29.426Z,20.9
2015-07-17T02:16:47.879Z,20.9
2015-07-17T02:17:06.379Z,20.9
2015-07-17T02:17:24.929Z,20.8
2015-07-17T02:17:43.476Z,20.8
2015-07-17T02:18:02.210Z,20.7
2015-07-17T02:18:20.727Z,20.7
2015-07-17T02:18:38.727Z,20.8
2015-07-17T02:18:57.227Z,20.8
2015-07-17T02:19:15.805Z,20.8
2015-07-17T02:19:34.260Z,20.9
2015-07-17T02:19:52.760Z,20.9
2015-07-17T02:20:11.401Z,20.9
2015-07-17T02:20:29.950Z,20.8
2015-07-17T02:20:48.418Z,20.7
2015-07-17T02:21:06.872Z,20.6
2015-07-17T02:21:25.436Z,20.6
2015-07-17T02:21:43.858Z,20.6
2015-07-17T02:22:02.264Z,20.5
2015-07-17T02:22:20.749Z,20.5
2015-07-17T02:22:39.454Z,20.5
2015-07-17T02:22:57.813Z,20.5
2015-07-17T02:23:16.344Z,20.4
2015-07-17T02:23:34.970Z,20.5
2015-07-17T02:23:53.423Z,20.6
2015-07-17T02:24:11.783Z,20.6
2015-07-17T02:24:30.208Z,20.6
2015-07-17T02:24:48.645Z,20.6
2015-07-17T02:25:07.020Z,20.6
2015-07-17T02:25:25.382Z,20.6
2015-07-17T02:25:43.803Z,20.6
2015-07-17T02:26:02.178Z,20.6
2015-07-17T02:26:20.757Z,20.6
2015-07-17T02:26:39.165Z,20.6
2015-07-17T02:26:57.977Z,20.6
2015-07-17T02:27:16.446Z,20.6
2015-07-17T02:27:34.807Z,20.7
2015-07-17T02:27:53.229Z,20.7
2015-07-17T02:28:11.823Z,20.7
2015-07-17T02:28:30.231Z,20.7
2015-07-17T02:28:48.778Z,20.6
2015-07-17T02:29:07.231Z,20.5
2015-07-17T02:29:25.606Z,20.5
2015-07-17T02:29:44.029Z,20.6
2015-07-17T02:30:02.810Z,20.5
2015-07-17T02:30:21.295Z,20.5
2015-07-17T02:30:39.937Z,20.6
2015-07-17T02:30:58.406Z,20.6
2015-07-17T02:31:16.875Z,20.7
2015-07-17T02:31:35.440Z,20.7
2015-07-17T02:31:54.003Z,20.6
2015-07-17T02:32:12.050Z,20.6
2015-07-17T02:32:31.021Z,20.6
2015-07-17T02:32:49.489Z,20.6
2015-07-17T02:33:08.036Z,20.7
2015-07-17T02:33:26.427Z,20.7
2015-07-17T02:33:45.163Z,20.6
2015-07-17T02:34:03.523Z,20.6
2015-07-17T02:34:21.929Z,20.6
2015-07-17T02:34:40.556Z,20.6
2015-07-17T02:34:59.134Z,20.7
2015-07-17T02:35:17.634Z,20.7
2015-07-17T02:35:36.072Z,20.6
2015-07-17T02:35:54.854Z,20.6
2015-07-17T02:36:13.197Z,20.6
2015-07-17T02:36:31.994Z,20.6
2015-07-17T02:36:50.621Z,20.7
2015-07-17T02:37:09.215Z,20.7
2015-07-17T02:37:27.668Z,20.7
2015-07-17T02:37:46.092Z,20.6
2015-07-17T02:38:04.748Z,20.5
2015-07-17T02:38:23.545Z,20.4
2015-07-17T02:38:42.047Z,20.5
2015-07-17T02:39:00.500Z,20.4
2015-07-17T02:39:18.860Z,20.5
2015-07-17T02:39:37.455Z,20.6
2015-07-17T02:39:56.018Z,20.5
2015-07-17T02:40:14.487Z,20.4
2015-07-17T02:40:32.893Z,20.4
2015-07-17T02:40:51.364Z,20.5
2015-07-17T02:41:10.098Z,20.5
2015-07-17T02:41:28.629Z,20.5
2015-07-17T02:41:47.209Z,20.5
2015-07-17T02:42:05.694Z,20.6
2015-07-17T02:42:24.194Z,20.5
2015-07-17T02:42:42.805Z,20.5
2015-07-17T02:43:01.493Z,20.6
2015-07-17T02:43:19.993Z,20.6
2015-07-17T02:43:41.446Z,20.6
2015-07-17T02:43:59.963Z,20.5
2015-07-17T02:44:18.323Z,20.6
2015-07-17T02:44:36.901Z,20.6
2015-07-17T02:44:55.309Z,20.6
2015-07-17T02:45:13.731Z,20.5
2015-07-17T02:45:32.481Z,20.4
2015-07-17T02:45:50.999Z,20.4
2015-07-17T02:46:09.577Z,20.4
2015-07-17T02:46:28.061Z,20.3
2015-07-17T02:46:46.499Z,20.2
2015-07-17T02:47:04.906Z,20.2
2015-07-17T02:47:23.656Z,20.3
2015-07-17T02:47:42.109Z,20.4
2015-07-17T02:48:00.517Z,20.4
2015-07-17T02:48:18.970Z,20.4
2015-07-17T02:48:37.611Z,20.4
2015-07-17T02:48:56.019Z,20.5
2015-07-17T02:49:14.519Z,20.4
2015-07-17T02:49:32.941Z,20.4
2015-07-17T02:49:51.644Z,20.3
2015-07-17T02:50:10.100Z,20.3
2015-07-17T02:50:28.663Z,20.4
2015-07-17T02:50:47.507Z,20.3
2015-07-17T02:51:05.899Z,20.4
2015-07-17T02:51:24.509Z,20.3
2015-07-17T02:51:42.977Z,20.4
2015-07-17T02:52:01.495Z,20.4
2015-07-17T02:52:19.933Z,20.4
2015-07-17T02:52:38.729Z,20.4
2015-07-17T02:52:57.104Z,20.4
2015-07-17T02:53:15.700Z,20.4
2015-07-17T02:53:34.185Z,20.4
2015-07-17T02:53:52.716Z,20.4
2015-07-17T02:54:11.498Z,20.3
2015-07-17T02:54:29.920Z,20.3
2015-07-17T02:54:48.295Z,20.2
2015-07-17T02:55:07.032Z,20.1
2015-07-17T02:55:25.751Z,20.1
2015-07-17T02:55:44.282Z,20.1
2015-07-17T02:56:02.659Z,20.1
2015-07-17T02:56:21.316Z,20.1
2015-07-17T02:56:39.925Z,20.1
2015-07-17T02:56:58.362Z,20.2
2015-07-17T02:57:16.739Z,20.2
2015-07-17T02:57:35.318Z,20.1
2015-07-17T02:57:54.130Z,20.1
2015-07-17T02:58:12.694Z,20.2
2015-07-17T02:58:31.084Z,20.3
2015-07-17T02:58:49.600Z,20.2
2015-07-17T02:59:08.289Z,20.1
2015-07-17T02:59:26.664Z,20.1
2015-07-17T02:59:45.227Z,20.1
2015-07-17T03:00:03.883Z,20.2
2015-07-17T03:00:22.416Z,20.3
2015-07-17T03:00:40.963Z,20.3
2015-07-17T03:00:59.557Z,20.3
2015-07-17T03:01:17.465Z,20.3
2015-07-17T03:01:35.871Z,20.3
2015-07-17T03:01:54.356Z,20.4
2015-07-17T03:02:12.717Z,20.3
2015-07-17T03:02:31.592Z,20.3
2015-07-17T03:02:49.967Z,20.2
2015-07-17T03:03:08.547Z,20.2
2015-07-17T03:03:26.579Z,20.1
2015-07-17T03:03:44.375Z,20.2
2015-07-17T03:04:02.969Z,20.2
2015-07-17T03:04:21.346Z,20.2
2015-07-17T03:04:39.956Z,20.1
2015-07-17T03:04:58.409Z,20.1
2015-07-17T03:05:16.786Z,20.2
2015-07-17T03:05:35.348Z,20.2
2015-07-17T03:05:53.833Z,20.2
2015-07-17T03:06:12.335Z,20.3
2015-07-17T03:06:30.944Z,20.3
2015-07-17T03:06:49.475Z,20.3
2015-07-17T03:07:07.850Z,20.2
2015-07-17T03:07:26.337Z,20.1
2015-07-17T03:07:44.977Z,20.1
2015-07-17T03:08:03.493Z,20
2015-07-17T03:08:21.917Z,20
2015-07-17T03:08:40.682Z,20.1
2015-07-17T03:08:59.057Z,20.1
2015-07-17T03:09:17.700Z,20.1
2015-07-17T03:09:36.075Z,20.2
2015-07-17T03:09:53.981Z,20.2
2015-07-17T03:10:12.841Z,20.3
2015-07-17T03:10:31.264Z,20.3
2015-07-17T03:10:49.749Z,20.2
2015-07-17T03:11:08.327Z,20.2
2015-07-17T03:11:26.907Z,20.2
2015-07-17T03:11:45.688Z,20.2
2015-07-17T03:12:04.048Z,20.3
2015-07-17T03:12:22.440Z,20.3
2015-07-17T03:12:40.956Z,20.3
2015-07-17T03:12:59.393Z,20.3
2015-07-17T03:13:18.003Z,20.2
2015-07-17T03:13:36.505Z,20.2
2015-07-17T03:13:54.895Z,20.2
2015-07-17T03:14:13.302Z,20.2
2015-07-17T03:14:31.757Z,20.2
2015-07-17T03:14:50.366Z,20.1
2015-07-17T03:15:08.929Z,20
2015-07-17T03:15:27.524Z,20
2015-07-17T03:15:46.087Z,20
2015-07-17T03:16:04.509Z,20
2015-07-17T03:16:22.901Z,20
2015-07-17T03:16:41.464Z,20
2015-07-17T03:16:59.886Z,20
2015-07-17T03:17:18.464Z,20
2015-07-17T03:17:37.013Z,20
2015-07-17T03:17:55.513Z,20
2015-07-17T03:18:13.919Z,20.1
2015-07-17T03:18:32.404Z,20.1
2015-07-17T03:18:50.920Z,20.1
2015-07-17T03:19:09.701Z,20
2015-07-17T03:19:28.344Z,20
2015-07-17T03:19:46.719Z,20
2015-07-17T03:20:05.500Z,19.9
2015-07-17T03:20:24.110Z,20
2015-07-17T03:20:42.565Z,20
2015-07-17T03:21:01.080Z,20
2015-07-17T03:21:19.721Z,20.1
2015-07-17T03:21:38.348Z,20.1
2015-07-17T03:21:56.723Z,20
2015-07-17T03:22:15.223Z,20
2015-07-17T03:22:33.772Z,19.9
2015-07-17T03:22:52.178Z,19.9
2015-07-17T03:23:10.928Z,19.9
2015-07-17T03:23:29.381Z,19.9
2015-07-17T03:23:47.899Z,20
2015-07-17T03:24:06.649Z,20
2015-07-17T03:24:25.118Z,20
2015-07-17T03:24:43.541Z,20
2015-07-17T03:25:01.948Z,20.1
2015-07-17T03:25:20.307Z,20.1
2015-07-17T03:25:38.731Z,20.1
2015-07-17T03:25:57.481Z,20.1
2015-07-17T03:26:15.528Z,20
2015-07-17T03:26:33.903Z,19.9
2015-07-17T03:26:52.281Z,20
2015-07-17T03:27:11.078Z,20
2015-07-17T03:27:29.468Z,20
2015-07-17T03:27:48.126Z,19.9
2015-07-17T03:28:06.501Z,19.9
2015-07-17T03:28:24.969Z,20
2015-07-17T03:28:43.581Z,20
2015-07-17T03:29:02.221Z,20
2015-07-17T03:29:21.034Z,20
2015-07-17T03:29:39.551Z,19.9
2015-07-17T03:29:57.973Z,19.9
2015-07-17T03:30:16.333Z,19.9
2015-07-17T03:30:34.880Z,20
2015-07-17T03:30:53.741Z,20
2015-07-17T03:31:12.272Z,20
2015-07-17T03:31:31.100Z,19.9
2015-07-17T03:31:49.696Z,19.9
2015-07-17T03:32:08.259Z,19.9
2015-07-17T03:32:26.759Z,20
2015-07-17T03:32:45.840Z,20
2015-07-17T03:33:04.246Z,19.9
2015-07-17T03:33:22.699Z,19.9
2015-07-17T03:33:41.168Z,19.8
2015-07-17T03:33:59.841Z,19.8
2015-07-17T03:34:18.388Z,19.8
2015-07-17T03:34:36.919Z,19.8
2015-07-17T03:34:55.390Z,19.9
2015-07-17T03:35:14.015Z,19.9
2015-07-17T03:35:32.405Z,19.9
2015-07-17T03:35:50.985Z,19.9
2015-07-17T03:36:09.548Z,19.9
2015-07-17T03:36:27.907Z,19.9
2015-07-17T03:36:46.845Z,19.8
2015-07-17T03:37:05.503Z,19.8
2015-07-17T03:37:24.019Z,19.8
2015-07-17T03:37:42.456Z,19.8
2015-07-17T03:38:00.911Z,19.7
2015-07-17T03:38:19.552Z,19.6
2015-07-17T03:38:38.114Z,19.6
2015-07-17T03:38:55.444Z,19.6
2015-07-17T03:39:14.007Z,19.7
2015-07-17T03:39:32.569Z,19.7
2015-07-17T03:39:50.929Z,19.7
2015-07-17T03:40:09.525Z,19.7
2015-07-17T03:40:28.103Z,19.7
2015-07-17T03:40:46.462Z,19.8
2015-07-17T03:41:04.933Z,19.8
2015-07-17T03:41:23.573Z,19.8
2015-07-17T03:41:42.073Z,19.8
2015-07-17T03:42:00.544Z,19.8
2015-07-17T03:42:19.279Z,19.8
2015-07-17T03:42:37.794Z,19.7
2015-07-17T03:42:56.388Z,19.7
2015-07-17T03:43:14.874Z,19.7
2015-07-17T03:43:33.562Z,19.6
2015-07-17T03:43:51.952Z,19.6
2015-07-17T03:44:10.422Z,19.6
2015-07-17T03:44:28.813Z,19.6
2015-07-17T03:44:47.375Z,19.6
2015-07-17T03:45:06.065Z,19.6
2015-07-17T03:45:24.830Z,19.6
2015-07-17T03:45:43.268Z,19.6
2015-07-17T03:46:01.909Z,19.6
2015-07-17T03:46:20.365Z,19.6
2015-07-17T03:46:38.755Z,19.7
2015-07-17T03:46:57.146Z,19.6
2015-07-17T03:47:15.600Z,19.6
2015-07-17T03:47:34.116Z,19.7
2015-07-17T03:47:52.741Z,19.8
2015-07-17T03:48:11.133Z,19.7
2015-07-17T03:48:29.836Z,19.8
2015-07-17T03:48:47.774Z,19.8
2015-07-17T03:49:06.165Z,19.9
2015-07-17T03:49:24.699Z,19.9
2015-07-17T03:49:43.246Z,19.9
2015-07-17T03:50:01.839Z,19.9
2015-07-17T03:50:20.278Z,19.9
2015-07-17T03:50:38.840Z,20
2015-07-17T03:50:57.434Z,20
2015-07-17T03:51:16.171Z,19.9
2015-07-17T03:51:34.624Z,19.9
2015-07-17T03:51:53.014Z,20
2015-07-17T03:52:10.891Z,19.9
2015-07-17T03:52:29.469Z,20
2015-07-17T03:52:47.469Z,20
2015-07-17T03:53:06.001Z,19.9
2015-07-17T03:53:24.535Z,19.9
2015-07-17T03:53:43.332Z,19.9
2015-07-17T03:54:01.832Z,19.9
2015-07-17T03:54:20.381Z,19.9
2015-07-17T03:54:38.881Z,19.9
2015-07-17T03:54:57.459Z,19.8
2015-07-17T03:55:16.100Z,19.8
2015-07-17T03:55:34.882Z,19.8
2015-07-17T03:55:53.335Z,19.8
2015-07-17T03:56:12.100Z,19.8
2015-07-17T03:56:30.556Z,19.8
2015-07-17T03:56:49.259Z,19.8
2015-07-17T03:57:07.727Z,19.9
2015-07-17T03:57:26.386Z,19.9
2015-07-17T03:57:45.245Z,19.9
2015-07-17T03:58:03.058Z,20
2015-07-17T03:58:21.670Z,19.9
2015-07-17T03:58:40.248Z,19.9
2015-07-17T03:58:58.654Z,19.9
2015-07-17T03:59:17.107Z,20
2015-07-17T03:59:35.624Z,20
2015-07-17T03:59:54.046Z,19.9
2015-07-17T04:00:12.421Z,19.9
2015-07-17T04:00:50.095Z,20
2015-07-17T04:01:08.626Z,20.1
2015-07-17T04:01:27.066Z,20.1
2015-07-17T04:01:45.753Z,20.1
2015-07-17T04:02:04.269Z,20.1
2015-07-17T04:02:22.832Z,20.1
2015-07-17T04:02:41.426Z,20.1
2015-07-17T04:02:59.832Z,20
2015-07-17T04:03:17.613Z,20.1
2015-07-17T04:03:36.273Z,20.1
2015-07-17T04:03:55.288Z,20.1
2015-07-17T04:04:13.710Z,20.2
2015-07-17T04:04:32.353Z,20.2
2015-07-17T04:04:50.837Z,20.2
2015-07-17T04:05:09.259Z,20.2
2015-07-17T04:05:27.870Z,20.2
2015-07-17T04:05:46.324Z,20.2
2015-07-17T04:06:05.245Z,20.2
2015-07-17T04:06:23.699Z,20.3
2015-07-17T04:06:42.107Z,20.2
2015-07-17T04:07:00.888Z,20.2
2015-07-17T04:07:19.357Z,20.3
2015-07-17T04:07:38.046Z,20.3
2015-07-17T04:07:56.468Z,20.2
2015-07-17T04:08:15.093Z,20.3